A STRONG WIND WARNING IS CURRENT FOR WESTERN AND RENNELL/BELLONA PROVINCES AND THE SOUTHERN WATERS OF MAKIRA, GUADALCANAL AND RUSSELL ISLANDS. TAF3/TAF – Solomon Islands Meteorological Services

Meteorological Division | Solomon Islands Government

TAF3/TAF

FTNG31 AGGG 190815
TAF AGGH 190815Z 1909/2006 VRB03KT 9999 FEW004 SCT027 OVC100
PROB40 INTER 1910/1912 5000 SHRA SCT015 FEW016CB BKN028
T 25 25 24 25 Q 1008 1009 1007 1006
TAF3=

TAF AGGM 190815Z 1909/2006 14008KT 9999 FEW017 SCT030 BKN100
INTER 1909/1912 5000 SHRA SCT015 FEW016CB BKN028
Q 1008 1009 1007 1006
TAF3=

TAF AGGN 190815Z 1909/2006 12008KT 9999 FEW017 SCT030 BKN100
INTER 1909/1912 5000 SHRA SCT015 FEW016CB BKN028
TAF3=

Our website use cookies to improve and personalize your experience and to display advertisements(if any). Our website may also include cookies from third parties like Google Adsense, Google Analytics, Youtube. By using the website, you consent to the use of cookies. We have updated our Privacy Policy. Please click on the button to check our Privacy Policy.